Time;durP1;ratioP1;P1;durP2;ratioP2;P2;SDS_P1;SDS_P2;PMS_P1;PMS_P2;Temp;Humidity;BMP_temperature;BMP_pressure;BME280_temperature;BME280_humidity;BME280_pressure;Samples;Min_cycle;Max_cycle;Signal;HPM_P1;HPM_P2
2023/03/11 05:56:43;;;;;;;440.80;348.45;;;;;;;20.13;48.35;100338.44;4966278;27;4065672;-49
2023/03/11 05:59:13;;;;;;;439.65;340.48;;;;;;;21.08;45.88;100340.06;5090678;28;20036;-51
2023/03/11 06:01:42;;;;;;;429.33;340.48;;;;;;;21.78;44.07;100341.03;5090247;28;20036;-47
2023/03/11 06:04:11;;;;;;;429.88;330.15;;;;;;;22.29;42.84;100326.81;5090784;28;20032;-50
2023/03/11 06:06:40;;;;;;;418.17;327.50;;;;;;;22.59;41.87;100335.84;5089945;28;20106;-49
2023/03/11 06:09:13;;;;;;;395.83;303.67;;;;;;;22.73;40.94;100350.75;5090253;28;20390;-50
2023/03/11 06:11:41;;;;;;;381.42;288.63;;;;;;;22.84;40.37;100351.72;5090169;28;20033;-52
2023/03/11 06:14:12;;;;;;;376.70;279.17;;;;;;;22.86;39.99;100344.75;5090387;28;20494;-52
2023/03/11 06:16:41;;;;;;;379.85;280.23;;;;;;;22.86;40.03;100347.38;5089926;28;20047;-48
2023/03/11 06:19:09;;;;;;;387.48;290.77;;;;;;;22.96;39.95;100356.19;5090273;28;20028;-51
2023/03/11 06:21:38;;;;;;;367.85;275.75;;;;;;;22.94;39.82;100344.81;5089855;28;20020;-48
2023/03/11 06:24:06;;;;;;;377.63;280.25;;;;;;;22.95;39.84;100350.94;5090048;28;20488;-51
2023/03/11 06:26:35;;;;;;;356.77;258.40;;;;;;;22.96;39.29;100358.78;5089848;28;20024;-50
2023/03/11 06:29:03;;;;;;;358.20;267.75;;;;;;;22.95;39.67;100364.03;5089809;28;20500;-51
2023/03/11 06:31:32;;;;;;;350.10;263.90;;;;;;;22.94;39.16;100367.50;5089728;28;20445;-50
2023/03/11 06:34:00;;;;;;;358.08;266.08;;;;;;;22.88;39.45;100355.25;5089771;28;20028;-48
2023/03/11 06:36:28;;;;;;;349.55;248.43;;;;;;;22.97;39.62;100363.16;5089832;28;20036;-51
2023/03/11 06:38:57;;;;;;;342.83;253.43;;;;;;;23.00;39.19;100362.31;5089543;28;20032;-51
2023/03/11 06:41:25;;;;;;;331.35;246.95;;;;;;;22.95;38.98;100361.41;5089240;28;20028;-52
2023/03/11 06:43:53;;;;;;;332.67;250.80;;;;;;;22.99;39.06;100374.50;5089599;28;20489;-54
2023/03/11 06:46:23;;;;;;;317.38;238.15;;;;;;;23.01;39.32;100378.03;5089630;28;20115;-51
2023/03/11 06:48:52;;;;;;;329.20;232.02;;;;;;;23.01;39.10;100384.97;5089687;28;20028;-47
2023/03/11 06:51:21;;;;;;;298.55;220.15;;;;;;;23.03;38.80;100383.25;5089504;28;20063;-47
2023/03/11 06:53:51;;;;;;;307.85;222.07;;;;;;;23.08;38.88;100376.31;5089411;28;20020;-48
2023/03/11 06:56:21;;;;;;;288.77;212.77;;;;;;;23.06;39.04;100375.44;5088982;28;20052;-48
2023/03/11 06:58:49;;;;;;;284.10;198.13;;;;;;;23.08;38.77;100384.16;5089017;28;20029;-47
2023/03/11 07:01:20;;;;;;;278.63;202.50;;;;;;;23.10;38.66;100373.72;5089373;28;20027;-48
2023/03/11 07:03:48;;;;;;;264.10;191.25;;;;;;;23.10;38.66;100381.56;5089257;28;20031;-52
2023/03/11 07:06:20;;;;;;;256.15;190.35;;;;;;;23.12;38.63;100391.19;5085463;28;20111;-49
2023/03/11 07:08:49;;;;;;;257.48;189.55;;;;;;;23.04;38.63;100382.38;5075399;28;20159;-47
2023/03/11 07:11:20;;;;;;;239.90;178.32;;;;;;;23.09;38.74;100396.41;5074467;28;20079;-50
2023/03/11 07:13:48;;;;;;;253.85;181.23;;;;;;;23.30;38.09;100393.06;5075389;28;20417;-52
2023/03/11 07:16:19;;;;;;;237.90;176.07;;;;;;;23.23;38.23;100406.13;5075257;28;20025;-50
2023/03/11 07:18:48;;;;;;;237.80;175.55;;;;;;;23.26;38.41;100408.75;5083645;22;20054;-49
2023/03/11 07:21:19;;;;;;;238.05;169.02;;;;;;;23.16;38.51;100421.75;5007235;28;20045;-50
2023/03/11 07:23:48;;;;;;;233.15;169.18;;;;;;;23.17;38.31;100405.16;5014124;28;20060;-51
2023/03/11 07:26:17;;;;;;;225.23;170.20;;;;;;;23.26;38.32;100408.75;5015777;28;20026;-50
2023/03/11 07:28:45;;;;;;;240.15;168.57;;;;;;;23.33;38.24;100414.03;5015687;28;20026;-49
2023/03/11 07:31:17;;;;;;;240.40;169.82;;;;;;;23.21;38.35;100420.06;5014983;28;20037;-51
2023/03/11 07:33:46;;;;;;;224.95;163.38;;;;;;;23.19;38.65;100424.38;5015160;28;20461;-48
2023/03/11 07:36:17;;;;;;;225.95;160.10;;;;;;;23.41;37.75;100415.84;5014136;28;20026;-52
2023/03/11 07:38:45;;;;;;;216.40;160.23;;;;;;;23.36;38.11;100428.88;5015591;28;20030;-49
2023/03/11 07:41:15;;;;;;;224.65;159.30;;;;;;;23.34;38.36;100428.00;5015221;28;20025;-50
2023/03/11 07:43:45;;;;;;;220.90;153.20;;;;;;;23.37;37.97;100428.03;5015326;28;20026;-49
2023/03/11 07:46:17;;;;;;;220.07;157.00;;;;;;;23.50;37.68;100435.09;5015180;28;20030;-49
2023/03/11 07:48:46;;;;;;;219.30;154.77;;;;;;;23.41;37.84;100437.66;5015243;28;20037;-49
2023/03/11 07:51:30;;;;;;;212.80;150.43;;;;;;;23.38;37.73;100437.63;5015024;28;20084;-49
2023/03/11 07:54:00;;;;;;;205.73;148.32;;;;;;;23.43;37.83;100442.88;5015171;28;20029;-50
2023/03/11 07:56:30;;;;;;;217.32;150.63;;;;;;;23.32;37.93;100441.06;5014764;28;20474;-52
2023/03/11 07:59:00;;;;;;;206.27;144.68;;;;;;;23.52;37.55;100448.19;5014738;28;20491;-51
2023/03/11 08:01:35;;;;;;;204.20;142.55;;;;;;;23.69;37.09;100443.06;5015014;28;20073;-48
2023/03/11 08:04:05;;;;;;;199.18;142.85;;;;;;;23.51;37.36;100442.06;5014753;28;20399;-53
2023/03/11 08:06:35;;;;;;;204.60;142.70;;;;;;;23.47;37.64;100448.19;5013509;28;20096;-50
2023/03/11 08:09:07;;;;;;;208.50;147.63;;;;;;;23.56;37.72;100447.38;5014859;28;20030;-50
2023/03/11 08:11:36;;;;;;;205.85;141.57;;;;;;;23.63;37.50;100454.38;5014889;28;20058;-50
2023/03/11 08:14:05;;;;;;;199.35;141.85;;;;;;;23.59;37.52;100452.59;5014342;28;20037;-49
2023/03/11 08:16:33;;;;;;;194.77;139.93;;;;;;;23.57;37.36;100454.34;5014734;28;20057;-48
2023/03/11 08:19:02;;;;;;;199.15;140.77;;;;;;;23.59;37.49;100462.22;5013047;28;20129;-50
2023/03/11 08:21:31;;;;;;;197.88;141.45;;;;;;;23.43;37.55;100471.69;5014827;28;20107;-50
2023/03/11 08:24:01;;;;;;;197.82;141.00;;;;;;;23.49;37.85;100479.59;5014844;28;20408;-51
2023/03/11 08:26:30;;;;;;;198.75;144.98;;;;;;;23.63;37.06;100471.84;5014373;28;20438;-49
2023/03/11 08:28:59;;;;;;;202.02;140.77;;;;;;;23.62;37.36;100485.81;5013699;28;20391;-49
2023/03/11 08:31:29;;;;;;;201.38;142.50;;;;;;;23.61;37.36;100489.28;5014213;28;20029;-49
2023/03/11 08:34:00;;;;;;;199.07;140.73;;;;;;;23.69;37.21;100482.34;5014364;28;20026;-49
2023/03/11 08:36:29;;;;;;;197.60;136.52;;;;;;;23.77;37.22;100485.91;5014034;28;20121;-51
2023/03/11 08:38:58;;;;;;;198.52;140.15;;;;;;;23.68;37.12;100462.25;5014035;28;20076;-49
2023/03/11 08:41:27;;;;;;;200.75;141.70;;;;;;;23.74;37.28;100492.88;5014375;28;20533;-50
2023/03/11 08:43:56;;;;;;;187.98;134.80;;;;;;;23.67;37.30;100486.69;5014152;28;20053;-51
2023/03/11 08:46:28;;;;;;;189.60;133.05;;;;;;;23.69;37.38;100489.34;5013682;28;20124;-49
2023/03/11 08:48:57;;;;;;;194.35;139.02;;;;;;;23.76;37.35;100488.50;5013942;28;20052;-49
2023/03/11 08:51:27;;;;;;;195.07;136.43;;;;;;;23.74;36.97;100491.13;5012746;28;20053;-51
2023/03/11 08:53:55;;;;;;;185.32;131.18;;;;;;;23.79;37.29;100494.66;5014252;28;20164;-50
2023/03/11 08:56:24;;;;;;;186.40;132.10;;;;;;;23.69;37.64;100503.28;5012251;28;20041;-49
2023/03/11 08:58:53;;;;;;;188.77;133.13;;;;;;;23.73;37.35;100507.69;5013787;28;20471;-49
2023/03/11 09:01:22;;;;;;;186.90;130.13;;;;;;;23.75;37.62;100505.97;5012833;28;20026;-50
2023/03/11 09:03:51;;;;;;;187.00;129.73;;;;;;;23.71;37.40;100519.03;5013936;28;20036;-50
2023/03/11 09:06:20;;;;;;;199.73;137.50;;;;;;;23.66;37.76;100519.88;5013973;28;20026;-50
2023/03/11 09:08:49;;;;;;;188.05;132.75;;;;;;;23.66;37.65;100513.78;5013723;28;20041;-50
2023/03/11 09:11:17;;;;;;;197.75;136.68;;;;;;;23.79;37.42;100523.47;4977945;28;20057;-53
2023/03/11 09:13:45;;;;;;;202.90;138.90;;;;;;;23.80;37.19;100516.47;4971300;28;20093;-51
2023/03/11 09:16:14;;;;;;;199.75;137.68;;;;;;;23.81;37.46;100519.09;4977850;28;20030;-49
2023/03/11 09:18:42;;;;;;;202.35;138.70;;;;;;;23.91;37.55;100521.78;4973213;28;20061;-50
2023/03/11 09:21:10;;;;;;;202.20;142.02;;;;;;;23.87;37.52;100522.63;4973265;28;20027;-51
2023/03/11 09:23:38;;;;;;;200.82;140.23;;;;;;;23.87;37.84;100533.09;4973859;28;20031;-50
2023/03/11 09:26:06;;;;;;;208.15;146.68;;;;;;;23.93;37.19;100530.53;4969921;28;20082;-51
2023/03/11 09:28:33;;;;;;;203.68;142.73;;;;;;;23.94;37.82;100527.91;4973849;28;20047;-52
2023/03/11 09:31:01;;;;;;;207.15;146.75;;;;;;;23.88;37.42;100521.75;4975674;28;20444;-54
2023/03/11 09:33:28;;;;;;;206.90;143.98;;;;;;;23.93;37.79;100527.91;4974708;28;20025;-51
2023/03/11 09:35:56;;;;;;;213.30;147.90;;;;;;;23.89;37.90;100528.75;4973716;28;20468;-50
2023/03/11 09:38:25;;;;;;;217.82;150.77;;;;;;;23.89;37.46;100527.03;4973464;28;20031;-50
2023/03/11 09:41:30;;;;;;;213.15;148.52;;;;;;;23.95;37.45;100534.91;4977436;28;20054;-50
2023/03/11 09:44:36;;;;;;;214.75;149.55;;;;;;;23.96;37.33;100543.66;4973215;28;20031;-52
2023/03/11 09:47:24;;;;;;;212.43;149.75;;;;;;;23.95;37.42;100552.38;4969172;28;20066;-49
2023/03/11 09:49:55;;;;;;;217.93;157.52;;;;;;;24.00;37.63;100550.66;4973266;28;20440;-50
2023/03/11 09:52:29;;;;;;;211.98;147.48;;;;;;;23.88;37.93;100543.59;4973387;28;20420;-50
2023/03/11 09:54:57;;;;;;;214.73;150.40;;;;;;;23.89;37.84;100555.84;4973152;28;20039;-54
2023/03/11 09:57:29;;;;;;;212.50;146.45;;;;;;;23.79;38.01;100556.63;4973376;28;20054;-51
2023/03/11 09:59:57;;;;;;;218.57;154.55;;;;;;;23.77;37.78;100564.47;4973222;28;20022;-50
2023/03/11 10:02:26;;;;;;;206.32;148.68;;;;;;;23.75;37.96;100560.06;4973407;28;20038;-51
2023/03/11 10:05:01;;;;;;;216.80;149.45;;;;;;;23.69;38.37;100570.50;4973411;28;20473;-49
2023/03/11 10:07:29;;;;;;;;;;;;;;;23.77;38.04;100568.81;4972269;28;20062;-49
2023/03/11 10:09:58;;;;;;;213.10;145.68;;;;;;;23.92;37.59;100578.53;4972011;28;20000;-50
2023/03/11 10:12:45;;;;;;;208.60;143.77;;;;;;;23.94;37.56;100571.56;4977148;28;20484;-50
2023/03/11 10:15:38;;;;;;;204.13;145.00;;;;;;;23.94;37.81;100572.44;4969979;28;20456;-51
2023/03/11 10:18:17;;;;;;;211.70;146.10;;;;;;;23.96;37.74;100570.75;4974271;28;20495;-50
2023/03/11 10:20:54;;;;;;;204.60;138.85;;;;;;;23.93;37.65;100575.91;4973235;28;20065;-51
2023/03/11 10:23:32;;;;;;;192.93;137.50;;;;;;;23.96;37.84;100580.31;4973274;28;20034;-50
2023/03/11 10:26:05;;;;;;;199.57;138.45;;;;;;;23.96;37.52;100572.47;4973061;28;20118;-50
2023/03/11 10:28:37;;;;;;;200.55;134.20;;;;;;;23.92;37.76;100582.03;4973204;28;20035;-49
2023/03/11 10:31:08;;;;;;;197.77;135.48;;;;;;;23.99;37.56;100580.38;4971655;28;20026;-50
2023/03/11 10:33:46;;;;;;;189.63;133.57;;;;;;;23.97;37.83;100579.50;4971816;28;20030;-50
2023/03/11 10:36:22;;;;;;;196.98;139.75;;;;;;;23.87;37.89;100578.53;4972795;28;20031;-50
2023/03/11 10:38:52;;;;;;;198.30;134.70;;;;;;;23.87;37.93;100585.47;4968584;28;20027;-51
2023/03/11 10:41:44;;;;;;;188.93;130.32;;;;;;;23.91;37.87;100601.22;4980206;28;20034;-49
2023/03/11 10:44:17;;;;;;;200.25;137.95;;;;;;;24.03;37.53;100610.09;4996347;28;20035;-50
2023/03/11 10:46:46;;;;;;;197.90;136.38;;;;;;;24.03;37.42;100613.59;4995696;28;20122;-51
2023/03/11 10:49:16;;;;;;;193.77;135.95;;;;;;;23.98;37.91;100617.94;4996826;28;20026;-50
2023/03/11 10:51:51;;;;;;;198.32;137.52;;;;;;;23.99;37.74;100617.06;4995911;28;20476;-49
2023/03/11 10:54:25;;;;;;;193.77;130.68;;;;;;;24.07;37.63;100619.75;4996235;28;20058;-49
2023/03/11 10:57:00;;;;;;;193.90;134.55;;;;;;;23.99;37.79;100626.66;4996587;28;20469;-49
2023/03/11 10:59:49;;;;;;;193.98;130.40;;;;;;;24.00;37.89;100629.28;4976315;28;20041;-50
2023/03/11 11:02:38;;;;;;;198.00;135.13;;;;;;;23.85;38.00;100624.78;4972055;28;20054;-50
2023/03/11 11:05:19;;;;;;;193.32;131.25;;;;;;;23.79;37.98;100636.09;4972537;28;20043;-49
2023/03/11 11:07:48;;;;;;;183.65;130.43;;;;;;;23.77;38.23;100632.56;4977960;28;20027;-53
2023/03/11 11:10:26;;;;;;;182.75;123.57;;;;;;;23.79;38.17;100641.31;4977247;28;20030;-49
2023/03/11 11:13:12;;;;;;;180.05;123.85;;;;;;;23.90;38.05;100651.00;4975839;28;20034;-53
2023/03/11 11:15:51;;;;;;;183.40;128.02;;;;;;;23.94;37.74;100645.78;4976201;28;20034;-49
2023/03/11 11:18:22;;;;;;;187.63;129.10;;;;;;;23.95;38.07;100650.16;4975347;28;20054;-53
2023/03/11 11:21:04;;;;;;;184.98;127.10;;;;;;;23.98;37.62;100652.00;4974884;28;20117;-51
2023/03/11 11:23:32;;;;;;;187.88;125.82;;;;;;;23.90;37.98;100656.25;4976004;28;20101;-49
2023/03/11 11:26:03;;;;;;;179.50;123.18;;;;;;;23.92;38.12;100662.38;4976071;28;20030;-50
2023/03/11 11:28:32;;;;;;;195.07;128.07;;;;;;;23.81;38.49;100663.19;4975570;28;20499;-51
2023/03/11 11:31:02;;;;;;;190.82;129.57;;;;;;;23.93;38.29;100672.84;4975892;28;20042;-51
2023/03/11 11:33:33;;;;;;;191.35;125.32;;;;;;;23.93;37.87;100672.00;4975907;28;20023;-50
2023/03/11 11:36:03;;;;;;;185.40;127.10;;;;;;;23.89;38.31;100675.44;4975834;28;20034;-50
2023/03/11 11:38:33;;;;;;;184.40;124.20;;;;;;;23.85;38.01;100668.41;4975355;28;20030;-51
2023/03/11 11:41:03;;;;;;;195.57;128.32;;;;;;;23.86;38.38;100665.81;4975683;28;20034;-50
2023/03/11 11:43:31;;;;;;;183.48;127.63;;;;;;;23.97;37.96;100669.44;4972077;28;20031;-49
2023/03/11 11:46:02;;;;;;;190.80;127.93;;;;;;;24.01;37.62;100672.94;4975543;28;20031;-51
2023/03/11 11:48:32;;;;;;;192.70;127.13;;;;;;;24.00;37.95;100672.94;4971642;28;20115;-50
2023/03/11 11:51:01;;;;;;;185.10;128.15;;;;;;;24.04;37.87;100680.84;4975840;28;20033;-50
2023/03/11 11:53:39;;;;;;;192.35;128.63;;;;;;;23.92;38.24;100673.72;4971553;28;20043;-50
2023/03/11 11:56:07;;;;;;;189.35;125.65;;;;;;;23.87;38.43;100679.78;4974431;28;20031;-49
2023/03/11 11:58:36;;;;;;;180.63;121.68;;;;;;;23.93;38.47;100678.09;4974829;28;20066;-50
2023/03/11 12:01:23;;;;;;;177.57;120.38;;;;;;;24.01;38.33;100685.19;4975529;28;20033;-49
2023/03/11 12:04:10;;;;;;;193.43;128.02;;;;;;;23.94;38.50;100687.72;4975205;28;20031;-50
2023/03/11 12:06:48;;;;;;;175.57;123.07;;;;;;;23.91;38.77;100697.31;4972207;28;20440;-51
2023/03/11 12:09:37;;;;;;;187.43;123.63;;;;;;;23.90;38.34;100700.78;4974613;28;20532;-49
2023/03/11 12:12:13;;;;;;;175.88;121.22;;;;;;;23.86;38.69;100693.75;4972230;28;20046;-52
2023/03/11 12:14:43;;;;;;;191.65;127.65;;;;;;;23.80;38.69;100703.31;4973699;28;20046;-52
2023/03/11 12:17:13;;;;;;;181.38;124.22;;;;;;;23.81;38.82;100710.31;4973566;28;20030;-53
2023/03/11 12:20:04;;;;;;;192.00;125.90;;;;;;;23.94;38.76;100706.06;4974589;28;20073;-51
2023/03/11 12:22:57;;;;;;;171.88;114.93;;;;;;;23.97;38.69;100703.50;4974634;28;20023;-51
2023/03/11 12:25:28;;;;;;;182.10;121.22;;;;;;;23.99;38.28;100718.34;4973436;28;20449;-51
2023/03/11 12:28:17;;;;;;;192.80;122.70;;;;;;;24.00;38.36;100714.88;4958136;28;20027;-50
2023/03/11 12:30:51;;;;;;;177.93;119.10;;;;;;;23.97;38.37;100731.47;4967156;28;20042;-54
2023/03/11 12:33:42;;;;;;;176.60;119.90;;;;;;;23.99;38.16;100721.88;4973541;28;20472;-50
2023/03/11 12:36:27;;;;;;;181.90;121.90;;;;;;;24.02;38.19;100727.13;4971675;28;20480;-52
2023/03/11 12:38:56;;;;;;;179.55;120.78;;;;;;;24.08;37.93;100726.28;4973861;28;20034;-49
2023/03/11 12:41:43;;;;;;;178.13;119.13;;;;;;;24.07;38.29;100727.19;4975307;28;20030;-50
2023/03/11 12:44:31;;;;;;;179.73;114.25;;;;;;;24.09;38.17;100733.28;4975503;28;20455;-50
2023/03/11 12:47:02;;;;;;;172.30;113.75;;;;;;;24.06;38.44;100739.38;4974964;28;20077;-51
2023/03/11 12:49:40;;;;;;;162.57;109.63;;;;;;;24.03;38.16;100739.34;4975072;28;20030;-49
2023/03/11 12:52:13;;;;;;;167.00;111.95;;;;;;;24.08;38.28;100742.00;4975197;28;20473;-50
2023/03/11 12:55:00;;;;;;;165.90;110.35;;;;;;;24.05;38.45;100740.25;4974850;28;20035;-50
2023/03/11 12:57:37;;;;;;;150.20;101.97;;;;;;;24.00;38.58;100736.69;4962898;28;20110;-50
2023/03/11 13:00:21;;;;;;;154.93;104.40;;;;;;;24.08;38.44;100740.28;4956825;28;20059;-51
2023/03/11 13:03:12;;;;;;;154.73;103.10;;;;;;;24.09;38.35;100733.28;4973560;28;20037;-50
2023/03/11 13:06:00;;;;;;;150.48;98.20;;;;;;;24.09;38.33;100739.44;4971838;28;20022;-51
2023/03/11 13:08:49;;;;;;;142.90;95.97;;;;;;;24.09;38.39;100738.53;4972378;28;20043;-50
2023/03/11 13:11:39;;;;;;;146.98;94.88;;;;;;;24.08;38.30;100731.53;4965155;28;20413;-52
2023/03/11 13:14:35;;;;;;;138.30;93.10;;;;;;;24.10;38.19;100733.31;4972370;28;20085;-49
2023/03/11 13:17:24;;;;;;;141.23;94.18;;;;;;;24.09;38.25;100743.78;4973542;28;20053;-50
2023/03/11 13:19:55;;;;;;;138.65;89.25;;;;;;;24.07;38.39;100732.44;4972332;28;20588;-51
2023/03/11 13:22:43;;;;;;;128.95;88.45;;;;;;;24.15;38.14;100728.13;4989854;28;20151;-52
2023/03/11 13:25:41;;;;;;;131.75;86.82;;;;;;;24.21;38.22;100732.53;4972662;28;20023;-49
2023/03/11 13:28:47;;;;;;;139.50;87.43;;;;;;;24.11;38.06;100731.56;4973899;28;20400;-51
2023/03/11 13:31:21;;;;;;;129.55;85.90;;;;;;;24.04;38.16;100733.25;4988648;28;20050;-51
2023/03/11 13:33:52;;;;;;;126.63;84.18;;;;;;;24.05;38.26;100726.28;4990527;28;20027;-50
2023/03/11 13:40:14;;;;;;;136.45;86.20;;;;;;;24.01;38.15;100732.34;4990590;28;20049;-50
2023/03/11 13:42:54;;;;;;;120.50;80.47;;;;;;;24.05;38.30;100742.88;4991480;28;20038;-51
2023/03/11 13:45:29;;;;;;;139.82;84.85;;;;;;;24.03;38.42;100738.50;4992042;28;20026;-53
2023/03/11 13:48:01;;;;;;;120.80;80.80;;;;;;;24.09;38.26;100731.56;4991508;28;20032;-51
2023/03/11 13:50:38;;;;;;;120.45;77.93;;;;;;;24.09;38.30;100731.56;4996514;28;20031;-49
2023/03/11 13:53:16;;;;;;;123.70;81.07;;;;;;;24.14;38.15;100728.13;4992153;28;20150;-51
2023/03/11 13:55:47;;;;;;;121.22;77.05;;;;;;;24.03;38.29;100730.63;4991853;28;20034;-49
2023/03/11 13:58:19;;;;;;;122.82;81.00;;;;;;;24.01;38.14;100734.97;4992373;28;20421;-49
2023/03/11 14:00:51;;;;;;;121.35;79.78;;;;;;;24.03;38.31;100743.72;4991962;28;20391;-51
2023/03/11 14:03:21;;;;;;;116.65;78.68;;;;;;;24.01;38.25;100746.31;4993396;28;20396;-49
2023/03/11 14:05:57;;;;;;;118.65;77.53;;;;;;;24.04;37.89;100746.34;4976422;28;20453;-50
2023/03/11 14:08:31;;;;;;;118.47;79.07;;;;;;;24.05;37.81;100747.25;4993351;28;20034;-52
2023/03/11 14:11:01;;;;;;;118.63;76.00;;;;;;;24.01;37.88;100753.31;4991914;28;20037;-53
2023/03/11 14:13:32;;;;;;;121.63;78.60;;;;;;;23.99;38.06;100752.41;4992966;28;20065;-49
2023/03/11 14:16:04;;;;;;;114.22;78.55;;;;;;;23.97;37.94;100757.66;4993716;28;20196;-49
2023/03/11 14:18:37;;;;;;;121.78;79.35;;;;;;;23.99;38.15;100748.06;4995617;28;20096;-54
2023/03/11 14:21:22;;;;;;;117.50;75.35;;;;;;;23.96;38.43;100756.75;4997357;28;20030;-50
2023/03/11 14:23:52;;;;;;;118.30;77.65;;;;;;;23.99;38.53;100758.56;4995480;28;20046;-49
2023/03/11 14:26:24;;;;;;;115.53;74.47;;;;;;;24.01;38.08;100751.56;4997249;28;20121;-51
2023/03/11 14:28:55;;;;;;;108.60;72.03;;;;;;;24.06;38.15;100756.88;4995756;28;20496;-51
2023/03/11 14:31:30;;;;;;;112.95;72.05;;;;;;;24.00;37.77;100749.81;4997280;28;20117;-54
2023/03/11 14:34:06;;;;;;;121.13;74.15;;;;;;;24.00;37.72;100754.19;4997000;28;20026;-53
2023/03/11 14:36:49;;;;;;;114.47;75.43;;;;;;;23.95;38.26;100760.22;4997389;28;20414;-48
2023/03/11 14:39:37;;;;;;;110.82;73.30;;;;;;;24.01;38.27;100764.66;4996887;28;20030;-53
2023/03/11 14:42:22;;;;;;;118.90;73.32;;;;;;;23.98;38.01;100769.91;4996772;28;20105;-48
2023/03/11 14:45:02;;;;;;;113.68;71.38;;;;;;;24.01;38.20;100769.91;4997019;28;20031;-48
2023/03/11 14:47:37;;;;;;;116.97;71.78;;;;;;;23.96;38.01;100772.47;4997053;28;20034;-53
2023/03/11 14:50:17;;;;;;;119.18;74.90;;;;;;;23.93;38.35;100768.94;4996910;28;20080;-50
2023/03/11 14:52:47;;;;;;;112.15;75.38;;;;;;;23.94;38.22;100766.31;4995544;28;20503;-50
2023/03/11 14:55:18;;;;;;;119.35;75.85;;;;;;;24.05;37.92;100765.59;4996216;28;20030;-48
2023/03/11 14:57:58;;;;;;;115.45;72.28;;;;;;;24.02;38.10;100774.28;4996606;28;20022;-54
2023/03/11 15:00:28;;;;;;;115.25;75.47;;;;;;;23.94;37.92;100782.03;4996453;28;20026;-50
2023/03/11 15:03:16;;;;;;;106.97;70.28;;;;;;;24.08;37.96;100786.56;4996564;28;20392;-49
2023/03/11 15:05:50;;;;;;;116.47;71.93;;;;;;;24.06;37.92;100789.19;4993539;28;20072;-54
2023/03/11 15:08:21;;;;;;;116.28;73.10;;;;;;;24.04;37.70;100790.91;4995036;28;20126;-48
2023/03/11 15:11:18;;;;;;;109.18;72.28;;;;;;;23.99;38.25;100799.59;4996470;28;20038;-49
2023/03/11 15:13:50;;;;;;;121.20;71.30;;;;;;;24.09;37.64;100796.19;4993786;28;20069;-49
2023/03/11 15:16:37;;;;;;;113.65;73.30;;;;;;;24.00;37.88;100796.09;4996299;28;20754;-53
2023/03/11 15:19:28;;;;;;;108.22;67.97;;;;;;;24.02;38.15;100794.38;4996032;28;20428;-49
2023/03/11 15:21:58;;;;;;;111.28;69.95;;;;;;;24.01;37.77;100795.25;4993482;28;20034;-50
2023/03/11 15:24:29;;;;;;;109.40;68.28;;;;;;;24.00;37.95;100796.09;4996228;28;20468;-49
2023/03/11 15:27:28;;;;;;;106.15;69.43;;;;;;;24.02;37.72;100802.25;4996005;28;20511;-51
2023/03/11 15:29:57;;;;;;;113.55;70.90;;;;;;;24.07;37.91;100795.31;4981572;28;20034;-55
2023/03/11 15:32:39;;;;;;;106.55;68.97;;;;;;;24.02;37.96;100794.38;4996173;28;20037;-51
2023/03/11 15:35:09;;;;;;;104.53;67.53;;;;;;;24.02;38.08;100800.47;4994761;28;20117;-50
2023/03/11 15:37:39;;;;;;;111.60;70.00;;;;;;;24.06;37.64;100799.66;4996015;28;20101;-50
2023/03/11 15:40:25;;;;;;;108.35;69.85;;;;;;;23.92;37.80;100794.22;4994264;28;20022;-50
2023/03/11 15:43:32;;;;;;;109.68;70.30;;;;;;;23.94;37.80;100786.41;4996036;28;20476;-49
2023/03/11 15:46:02;;;;;;;109.03;70.47;;;;;;;24.02;37.80;100799.63;4994686;28;20038;-49
2023/03/11 15:48:30;;;;;;;116.22;71.90;;;;;;;23.96;37.83;100806.53;4995607;28;20472;-49
2023/03/11 15:50:59;;;;;;;108.55;70.55;;;;;;;24.00;37.71;100802.22;4995554;28;20069;-51
2023/03/11 15:53:29;;;;;;;112.72;70.25;;;;;;;24.05;37.87;100803.16;4995626;28;20069;-50
2023/03/11 15:56:01;;;;;;;112.05;69.53;;;;;;;23.95;37.92;100807.38;4995431;28;20040;-53
2023/03/11 15:58:30;;;;;;;112.75;69.22;;;;;;;24.01;37.78;100814.44;4978673;28;20034;-50
2023/03/11 16:00:58;;;;;;;114.82;70.80;;;;;;;23.96;37.86;100817.03;4994061;28;20500;-53
2023/03/11 16:03:27;;;;;;;108.07;67.78;;;;;;;23.97;37.96;100812.69;4995462;28;20031;-49
2023/03/11 16:05:54;;;;;;;110.68;70.30;;;;;;;24.02;37.88;100808.34;4993796;28;20062;-51
2023/03/11 16:08:21;;;;;;;111.13;70.18;;;;;;;23.93;37.65;100806.47;4994179;28;20058;-53
2023/03/11 16:10:51;;;;;;;113.50;69.47;;;;;;;23.97;37.80;100808.31;4995345;28;20034;-50
2023/03/11 16:13:19;;;;;;;117.07;71.70;;;;;;;23.94;37.92;100821.34;4995176;28;20121;-49
2023/03/11 16:15:48;;;;;;;111.00;71.72;;;;;;;23.89;38.14;100809.94;4995300;28;20030;-51
2023/03/11 16:18:17;;;;;;;117.38;73.82;;;;;;;23.90;37.81;100816.06;4994990;28;20060;-50
2023/03/11 16:20:48;;;;;;;115.65;72.82;;;;;;;23.96;37.92;100824.88;4995393;28;20034;-49
2023/03/11 16:23:22;;;;;;;117.63;75.43;;;;;;;23.88;37.89;100818.66;4993646;28;20026;-51
2023/03/11 16:25:59;;;;;;;117.93;75.55;;;;;;;23.93;37.74;100823.94;4993611;28;20502;-48
2023/03/11 16:28:27;;;;;;;116.57;70.68;;;;;;;23.92;37.92;100824.81;4994949;28;20068;-49
2023/03/11 16:30:56;;;;;;;113.93;71.65;;;;;;;23.85;37.77;100825.59;4995065;28;20026;-50
2023/03/11 16:33:24;;;;;;;113.70;70.72;;;;;;;23.99;37.83;100831.03;4993933;28;20053;-53
2023/03/11 16:35:53;;;;;;;112.13;74.15;;;;;;;23.97;37.83;100836.25;4993289;28;20038;-50
2023/03/11 16:38:22;;;;;;;116.32;73.72;;;;;;;23.99;37.54;100837.16;4994658;28;20154;-49
2023/03/11 16:41:01;;;;;;;112.82;73.70;;;;;;;23.94;37.68;100834.44;4993075;28;20030;-49
2023/03/11 16:43:30;;;;;;;116.72;73.18;;;;;;;23.89;37.84;100838.75;4993464;28;20456;-49
2023/03/11 16:45:59;;;;;;;114.10;70.75;;;;;;;23.91;38.03;100844.00;4993131;28;20092;-49
2023/03/11 16:48:28;;;;;;;122.82;74.15;;;;;;;23.94;38.03;100851.91;5026182;28;20034;-49
2023/03/11 16:50:56;;;;;;;114.78;72.20;;;;;;;23.94;37.66;100839.66;4994753;28;20022;-51
2023/03/11 16:53:25;;;;;;;117.78;72.45;;;;;;;23.93;37.63;100850.16;4994519;28;20022;-49
2023/03/11 16:55:54;;;;;;;115.35;74.78;;;;;;;23.88;37.89;100843.97;4994536;28;20041;-50
2023/03/11 16:58:23;;;;;;;122.00;73.45;;;;;;;23.88;37.69;100854.44;4994575;28;20092;-51
2023/03/11 17:00:51;;;;;;;114.20;75.60;;;;;;;23.77;38.29;100857.84;4994394;28;20031;-50
2023/03/11 17:03:20;;;;;;;110.13;73.07;;;;;;;23.87;38.01;100864.06;4994247;28;20026;-49
2023/03/11 17:05:49;;;;;;;109.07;71.60;;;;;;;23.83;37.80;100860.50;4994422;28;20369;-50
2023/03/11 17:08:18;;;;;;;117.28;75.63;;;;;;;23.78;38.09;100864.81;4994608;28;20105;-50
2023/03/11 17:10:47;;;;;;;112.80;70.68;;;;;;;23.81;37.82;100863.97;4992600;28;20033;-49
2023/03/11 17:13:15;;;;;;;116.63;75.35;;;;;;;23.78;37.86;100861.31;4994142;28;20018;-48
2023/03/11 17:15:45;;;;;;;114.53;73.97;;;;;;;23.76;38.08;100861.31;4994057;28;20036;-51
2023/03/11 17:18:14;;;;;;;116.38;75.85;;;;;;;23.79;38.00;100865.69;4993799;28;20023;-51
2023/03/11 17:20:42;;;;;;;120.25;76.80;;;;;;;23.88;37.89;100854.44;4992147;28;20050;-50
2023/03/11 17:23:09;;;;;;;114.05;71.10;;;;;;;23.88;37.66;100847.47;4993582;28;20033;-49
2023/03/11 17:25:40;;;;;;;117.88;75.03;;;;;;;23.91;38.01;100850.13;4993725;28;20127;-49